TimeEDT,TemperatureF,Dew PointF,Humidity,Sea Level PressureIn,VisibilityMPH,Wind Direction,Wind SpeedMPH,Gust SpeedMPH,PrecipitationIn,Events,Conditions,WindDirDegrees,DateUTC
12:53 AM,66.9,57.0,70,30.24,10.0,East,5.8,-,N/A,,Clear,80,2012-03-13 04:53:00
1:53 AM,64.9,57.9,78,30.23,10.0,ENE,6.9,-,N/A,,Clear,70,2012-03-13 05:53:00
2:53 AM,64.0,57.9,80,30.22,10.0,ENE,4.6,-,N/A,,Clear,70,2012-03-13 06:53:00
3:53 AM,63.0,59.0,87,30.20,10.0,ENE,4.6,-,N/A,,Clear,70,2012-03-13 07:53:00
4:53 AM,63.0,59.0,87,30.18,10.0,ENE,3.5,-,N/A,,Clear,70,2012-03-13 08:53:00
5:53 AM,63.0,60.1,90,30.19,10.0,ENE,4.6,-,N/A,,Clear,60,2012-03-13 09:53:00
6:53 AM,63.0,60.1,90,30.21,10.0,ENE,5.8,-,N/A,,Clear,60,2012-03-13 10:53:00
7:53 AM,63.0,60.1,90,30.22,10.0,ENE,4.6,-,N/A,,Clear,60,2012-03-13 11:53:00
8:53 AM,66.0,61.0,84,30.23,10.0,ENE,5.8,-,N/A,,Clear,60,2012-03-13 12:53:00
9:53 AM,73.0,60.1,64,30.24,10.0,East,10.4,-,N/A,,Clear,90,2012-03-13 13:53:00
10:53 AM,77.0,57.9,52,30.25,10.0,East,11.5,-,N/A,,Clear,80,2012-03-13 14:53:00
11:53 AM,80.1,57.0,45,30.25,10.0,East,11.5,-,N/A,,Partly Cloudy,90,2012-03-13 15:53:00
12:53 PM,81.0,55.9,42,30.23,10.0,ENE,6.9,18.4,N/A,,Scattered Clouds,70,2012-03-13 16:53:00
1:53 PM,81.0,55.9,42,30.20,10.0,Variable,6.9,-,N/A,,Scattered Clouds,0,2012-03-13 17:53:00
2:53 PM,84.0,55.0,37,30.18,10.0,East,12.7,16.1,N/A,,Partly Cloudy,80,2012-03-13 18:53:00
3:53 PM,84.0,54.0,35,30.16,10.0,East,8.1,-,N/A,,Clear,80,2012-03-13 19:53:00
4:53 PM,84.0,54.0,35,30.15,10.0,East,11.5,-,N/A,,Scattered Clouds,80,2012-03-13 20:53:00
5:53 PM,82.0,55.9,41,30.15,10.0,NE,10.4,-,N/A,,Mostly Cloudy,50,2012-03-13 21:53:00
6:53 PM,81.0,55.0,41,30.15,10.0,East,8.1,-,N/A,,Mostly Cloudy,100,2012-03-13 22:53:00
7:53 PM,78.1,57.0,48,30.16,10.0,East,8.1,-,N/A,,Mostly Cloudy,80,2012-03-13 23:53:00
8:53 PM,75.0,60.1,60,30.18,10.0,East,6.9,-,N/A,,Clear,80,2012-03-14 00:53:00
9:53 PM,73.0,59.0,61,30.21,10.0,East,6.9,-,N/A,,Clear,90,2012-03-14 01:53:00
10:53 PM,71.1,59.0,66,30.22,10.0,East,6.9,-,N/A,,Clear,90,2012-03-14 02:53:00
11:53 PM,70.0,57.9,65,30.22,10.0,East,6.9,-,N/A,,Clear,100,2012-03-14 03:53:00